Time;durP1;ratioP1;P1;durP2;ratioP2;P2;SDS_P1;SDS_P2;PMS_P1;PMS_P2;Temp;Humidity;BMP_temperature;BMP_pressure;BME280_temperature;BME280_humidity;BME280_pressure;Samples;Min_cycle;Max_cycle;Signal;HPM_P1;HPM_P2
2021/04/06 00:00:00;;;;;;;4.55;1.45;;;;;;;2.63;53.98;100007.50;692406;28;44314;-51
2021/04/06 00:00:27;;;;;;;2.88;1.30;;;;;;;2.63;53.92;100003.97;690461;28;104393;-51
2021/04/06 00:00:48;;;;;;;2.03;1.40;;;;;;;2.64;53.98;100019.00;689068;28;138160;-50
2021/04/06 00:01:13;;;;;;;1.75;1.35;;;;;;;2.66;53.72;100015.19;693132;28;36779;-50
2021/04/06 00:01:40;;;;;;;1.55;1.40;;;;;;;2.63;54.08;100010.16;689742;28;115249;-56
2021/04/06 00:02:08;;;;;;;1.60;1.25;;;;;;;2.64;53.95;100005.66;689670;28;138120;-55
2021/04/06 00:02:30;;;;;;;1.50;1.20;;;;;;;2.64;53.84;100011.00;690021;28;137995;-53
2021/04/06 00:02:53;;;;;;;2.65;1.27;;;;;;;2.63;54.08;100007.50;693342;28;22022;-51
2021/04/06 00:03:16;;;;;;;1.90;1.30;;;;;;;2.66;54.18;100014.34;691645;28;67624;-54
2021/04/06 00:03:38;;;;;;;4.18;1.30;;;;;;;2.69;53.64;100011.41;691528;28;84909;-51
2021/04/06 00:03:59;;;;;;;3.90;1.30;;;;;;;2.70;53.62;100018.41;692463;28;46317;-51
2021/04/06 00:04:23;;;;;;;5.68;1.50;;;;;;;2.70;53.67;100007.75;693575;28;23409;-50
2021/04/06 00:04:48;;;;;;;2.25;1.35;;;;;;;2.68;53.79;100010.56;691109;28;90334;-54
2021/04/06 00:05:10;;;;;;;2.45;1.30;;;;;;;2.75;53.50;100012.66;690996;28;93540;-52
2021/04/06 00:05:32;;;;;;;1.90;1.30;;;;;;;2.74;53.48;100005.63;691325;28;67553;-52
2021/04/06 00:05:57;;;;;;;1.42;1.30;;;;;;;2.76;53.41;100016.97;691605;28;45258;-53
2021/04/06 00:06:19;;;;;;;3.90;1.50;;;;;;;2.76;53.32;100007.19;689945;28;116152;-54
2021/04/06 00:06:43;;;;;;;3.55;1.27;;;;;;;2.71;53.36;100001.41;691558;28;45275;-55
2021/04/06 00:07:05;;;;;;;3.05;1.60;;;;;;;2.69;53.50;100011.41;691017;28;93285;-58
2021/04/06 00:07:26;;;;;;;3.47;1.20;;;;;;;2.68;53.79;100023.03;692735;28;21526;-50
2021/04/06 00:07:49;;;;;;;3.42;1.35;;;;;;;2.70;53.53;100003.25;692854;28;44427;-53
2021/04/06 00:08:11;;;;;;;3.30;1.77;;;;;;;2.72;53.54;100012.94;692428;28;46475;-52
2021/04/06 00:08:32;;;;;;;3.55;2.00;;;;;;;2.72;53.52;100007.63;691375;28;67653;-53
2021/04/06 00:08:53;;;;;;;3.63;1.70;;;;;;;2.71;53.48;100001.41;693319;28;23244;-53
2021/04/06 00:09:17;;;;;;;2.53;1.55;;;;;;;2.71;53.71;100017.41;693141;28;21572;-54
2021/04/06 00:09:39;;;;;;;4.53;1.52;;;;;;;2.72;53.50;100027.09;691392;28;68678;-50
2021/04/06 00:10:06;;;;;;;4.40;1.35;;;;;;;2.76;53.43;100009.84;691418;28;66872;-52
2021/04/06 00:10:31;;;;;;;2.40;1.40;;;;;;;2.74;53.41;100011.78;689951;28;134266;-52
2021/04/06 00:10:54;;;;;;;2.13;1.30;;;;;;;2.70;53.65;100005.09;689166;28;122214;-55
2021/04/06 00:11:17;;;;;;;2.25;1.20;;;;;;;2.69;53.65;100009.56;691679;28;61597;-52
2021/04/06 00:11:38;;;;;;;2.20;1.60;;;;;;;2.67;53.63;100013.38;691506;28;44429;-53
2021/04/06 00:12:01;;;;;;;2.88;1.42;;;;;;;2.67;53.85;100016.03;693041;28;44425;-51
2021/04/06 00:12:23;;;;;;;2.78;1.33;;;;;;;2.66;53.95;100027.69;691262;28;67520;-53
2021/04/06 00:12:46;;;;;;;3.70;1.27;;;;;;;2.65;53.82;100010.00;692362;28;45032;-50
2021/04/06 00:13:07;;;;;;;2.80;1.10;;;;;;;2.63;53.92;100012.84;691881;28;69360;-57
2021/04/06 00:13:32;;;;;;;1.73;1.10;;;;;;;2.62;54.17;100011.13;692854;28;22358;-53
2021/04/06 00:13:54;;;;;;;1.55;1.25;;;;;;;2.62;54.16;100020.97;690619;28;115104;-54
2021/04/06 00:14:16;;;;;;;2.20;1.30;;;;;;;2.62;54.14;100023.63;692864;28;46279;-54
2021/04/06 00:14:38;;;;;;;1.60;1.30;;;;;;;2.62;54.21;100019.13;692678;28;45006;-53
2021/04/06 00:15:00;;;;;;;2.70;1.58;;;;;;;2.62;53.96;100012.97;692598;28;46366;-52
2021/04/06 00:15:22;;;;;;;2.88;1.45;;;;;;;2.61;54.21;100028.09;692381;28;47465;-53
2021/04/06 00:15:44;;;;;;;1.83;1.27;;;;;;;2.61;54.20;100022.78;692101;28;46339;-56
2021/04/06 00:16:07;;;;;;;2.70;1.30;;;;;;;2.59;54.23;100021.25;693663;28;24364;-55
2021/04/06 00:16:28;;;;;;;2.47;1.30;;;;;;;2.56;54.29;100017.03;691599;28;69464;-53
2021/04/06 00:16:51;;;;;;;2.17;1.20;;;;;;;2.53;54.53;100020.00;693586;28;21518;-51
2021/04/06 00:17:14;;;;;;;2.63;1.40;;;;;;;2.52;54.61;100027.16;690789;28;69855;-53
2021/04/06 00:17:35;;;;;;;3.05;1.17;;;;;;;2.51;54.50;100021.97;691634;28;68421;-54
2021/04/06 00:17:58;;;;;;;2.60;1.30;;;;;;;2.53;54.36;100023.50;693647;28;21536;-53
2021/04/06 00:18:19;;;;;;;2.72;1.38;;;;;;;2.53;54.37;100018.16;691107;28;69463;-55
2021/04/06 00:18:41;;;;;;;1.77;1.30;;;;;;;2.52;54.58;100021.81;693739;28;23480;-53
2021/04/06 00:19:03;;;;;;;1.98;1.30;;;;;;;2.51;54.54;100029.97;692830;28;43701;-53
2021/04/06 00:19:25;;;;;;;2.00;1.20;;;;;;;2.49;54.60;100031.91;692655;28;46164;-51
2021/04/06 00:19:48;;;;;;;2.00;1.27;;;;;;;2.49;54.63;100022.13;691962;28;69395;-51
2021/04/06 00:20:10;;;;;;;3.70;1.48;;;;;;;2.52;54.52;100028.97;692613;28;45861;-54
2021/04/06 00:20:32;;;;;;;2.65;1.33;;;;;;;2.52;54.43;100027.16;692669;28;44393;-50
2021/04/06 00:20:55;;;;;;;3.65;1.35;;;;;;;2.53;54.43;100020.81;692870;28;43083;-54
2021/04/06 00:21:17;;;;;;;3.85;1.40;;;;;;;2.57;54.33;100025.88;691035;28;93253;-51
2021/04/06 00:21:40;;;;;;;2.15;1.40;;;;;;;2.55;54.23;100027.84;692915;28;15055;-51
2021/04/06 00:22:02;;;;;;;1.23;1.15;;;;;;;2.56;54.18;100022.38;694358;28;1152;-51
2021/04/06 00:22:26;;;;;;;2.50;1.20;;;;;;;2.53;54.26;100031.47;693874;28;1519;-53
2021/04/06 00:22:50;;;;;;;2.45;1.20;;;;;;;2.55;54.28;100022.50;694256;28;15022;-51
2021/04/06 00:23:12;;;;;;;2.28;1.23;;;;;;;2.52;54.15;100018.28;694239;28;62790;-53
2021/04/06 00:23:33;;;;;;;2.58;1.20;;;;;;;2.54;54.42;100024.34;695008;28;46760;-51
2021/04/06 00:23:56;;;;;;;1.25;1.15;;;;;;;2.55;54.33;100023.34;696776;28;1044;-50
2021/04/06 00:24:20;;;;;;;3.20;1.30;;;;;;;2.60;54.21;100025.59;697035;28;1045;-52
2021/04/06 00:24:44;;;;;;;3.40;1.30;;;;;;;2.59;54.21;100023.91;693521;28;15319;-50
2021/04/06 00:25:08;;;;;;;2.38;1.40;;;;;;;2.53;54.34;100028.00;692632;28;38861;-52
2021/04/06 00:25:38;;;;;;;3.78;1.70;;;;;;;2.55;54.33;100027.84;689137;28;62339;-57
2021/04/06 00:26:00;;;;;;;2.80;1.40;;;;;;;2.55;54.21;100025.19;686522;28;116135;-52
2021/04/06 00:26:21;;;;;;;2.55;1.30;;;;;;;2.56;54.24;100021.53;690760;28;24357;-56
2021/04/06 00:26:47;;;;;;;2.15;1.10;;;;;;;2.54;54.18;100029.69;693031;28;16090;-54
2021/04/06 00:27:12;;;;;;;3.85;1.27;;;;;;;2.52;54.32;100032.50;690015;28;125420;-56
2021/04/06 00:27:37;;;;;;;3.00;1.55;;;;;;;2.55;54.36;100025.19;685004;28;112220;-56
2021/04/06 00:28:02;;;;;;;1.50;1.20;;;;;;;2.56;54.36;100033.03;685385;28;136452;-57
2021/04/06 00:28:25;;;;;;;2.65;1.15;;;;;;;2.57;54.09;100018.72;687329;28;72806;-59
2021/04/06 00:28:47;;;;;;;2.23;1.30;;;;;;;2.54;54.24;100027.00;687062;28;92337;-54
2021/04/06 00:29:08;;;;;;;2.45;1.60;;;;;;;2.51;54.30;100024.63;688593;28;45197;-55
2021/04/06 00:29:32;;;;;;;2.45;1.50;;;;;;;2.53;54.27;100030.66;689734;28;21537;-54
2021/04/06 00:29:56;;;;;;;2.45;1.30;;;;;;;2.51;54.30;100033.47;685514;28;115926;-57
2021/04/06 00:30:25;;;;;;;3.25;1.30;;;;;;;2.48;54.74;100032.91;685856;28;85567;-55
2021/04/06 00:30:49;;;;;;;2.75;1.50;;;;;;;2.43;54.95;100025.34;683946;28;137550;-55
2021/04/06 00:31:12;;;;;;;2.45;1.30;;;;;;;2.41;55.01;100027.28;685717;28;92152;-53
2021/04/06 00:31:34;;;;;;;1.00;1.00;;;;;;;2.42;54.92;100033.47;686646;28;68992;-53
2021/04/06 00:31:56;;;;;;;2.90;1.58;;;;;;;2.40;54.87;100035.44;687201;28;45270;-55
2021/04/06 00:32:19;;;;;;;3.03;1.27;;;;;;;2.41;55.10;100035.28;687497;28;70404;-55
2021/04/06 00:32:41;;;;;;;2.28;1.20;;;;;;;2.43;54.93;100029.81;688454;28;46394;-54
2021/04/06 00:33:05;;;;;;;2.42;1.10;;;;;;;2.40;55.23;100032.75;688016;28;70435;-54
2021/04/06 00:33:28;;;;;;;2.63;1.30;;;;;;;2.38;55.19;100034.72;686899;28;92305;-54
2021/04/06 00:33:49;;;;;;;3.10;1.30;;;;;;;2.39;55.26;100028.44;688623;28;47214;-52
2021/04/06 00:34:11;;;;;;;2.55;1.40;;;;;;;2.40;55.19;100033.63;688589;28;46329;-57
2021/04/06 00:34:32;;;;;;;2.45;1.35;;;;;;;2.39;55.03;100034.59;688828;28;22496;-52
2021/04/06 00:34:56;;;;;;;1.30;1.20;;;;;;;2.42;54.92;100028.16;688753;28;45337;-56
2021/04/06 00:35:17;;;;;;;1.65;1.55;;;;;;;2.38;55.00;100032.91;688267;28;62087;-56
2021/04/06 00:35:38;;;;;;;2.40;1.40;;;;;;;2.41;54.91;100034.44;688868;28;35261;-54
2021/04/06 00:36:01;;;;;;;2.40;1.40;;;;;;;2.39;54.78;100031.94;688981;28;21669;-53
2021/04/06 00:36:25;;;;;;;2.25;1.20;;;;;;;2.37;55.03;100031.25;687828;28;64005;-51
2021/04/06 00:36:51;;;;;;;2.10;1.40;;;;;;;2.37;54.94;100031.25;687983;28;54543;-53
2021/04/06 00:37:14;;;;;;;2.30;1.10;;;;;;;2.35;55.04;100033.19;685766;28;139075;-53
2021/04/06 00:37:43;;;;;;;3.20;1.30;;;;;;;2.31;55.18;100023.81;690461;28;111096;-54
2021/04/06 00:38:08;;;;;;;2.53;1.20;;;;;;;2.29;55.31;100029.28;689495;28;137990;-50
2021/04/06 00:38:32;;;;;;;2.63;1.25;;;;;;;2.25;55.66;100030.53;690701;28;107769;-53
2021/04/06 00:38:54;;;;;;;8.50;3.38;;;;;;;2.26;55.79;100024.22;694104;28;15024;-55
2021/04/06 00:39:24;;;;;;;14.38;7.25;;;;;;;2.26;55.60;100037.56;694036;28;1146;-52
2021/04/06 00:39:58;;;;;;;7.55;3.25;;;;;;;2.31;55.48;100039.78;692039;28;60529;-54
2021/04/06 00:40:20;;;;;;;4.00;1.60;;;;;;;2.32;55.27;100034.31;689751;28;122471;-52
2021/04/06 00:40:47;;;;;;;3.40;1.45;;;;;;;2.33;55.15;100040.47;694032;28;1013;-56
2021/04/06 00:41:10;;;;;;;3.38;1.60;;;;;;;2.33;55.19;100037.81;688789;28;156871;-56
2021/04/06 00:41:32;;;;;;;1.95;1.40;;;;;;;2.30;55.38;100028.31;690833;28;88426;-52
2021/04/06 00:41:54;;;;;;;2.55;1.25;;;;;;;2.33;55.30;100028.00;692974;28;44650;-55
2021/04/06 00:42:18;;;;;;;1.45;1.20;;;;;;;2.36;55.36;100040.22;693025;28;45251;-52
2021/04/06 00:42:40;;;;;;;1.58;1.17;;;;;;;2.35;55.18;100035.84;691291;28;93294;-50
2021/04/06 00:43:04;;;;;;;1.67;1.20;;;;;;;2.32;55.58;100028.13;693387;28;23536;-50
2021/04/06 00:43:31;;;;;;;1.88;1.50;;;;;;;2.31;55.42;100031.81;691262;28;68524;-52
2021/04/06 00:43:53;;;;;;;1.40;1.30;;;;;;;2.31;55.54;100031.81;689936;28;127909;-51
2021/04/06 00:44:14;;;;;;;3.05;1.80;;;;;;;2.30;55.65;100033.63;693504;28;16642;-56
2021/04/06 00:44:38;;;;;;;3.30;1.50;;;;;;;2.29;55.47;100033.78;692871;28;46587;-50
2021/04/06 00:45:04;;;;;;;1.75;1.30;;;;;;;2.36;55.33;100039.38;690357;28;92201;-55
2021/04/06 00:45:26;;;;;;;2.90;1.23;;;;;;;2.41;55.00;100039.78;689234;28;138028;-50
2021/04/06 00:45:48;;;;;;;3.70;1.30;;;;;;;2.41;55.16;100039.78;692137;28;46263;-54
2021/04/06 00:46:12;;;;;;;5.03;1.58;;;;;;;2.38;55.15;100032.91;693103;28;45250;-54
2021/04/06 00:46:33;;;;;;;3.85;1.58;;;;;;;2.39;55.13;100033.75;691250;28;92425;-52
2021/04/06 00:46:54;;;;;;;4.22;1.35;;;;;;;2.35;55.24;100027.84;694025;28;23498;-55
2021/04/06 00:47:23;;;;;;;3.10;1.35;;;;;;;2.31;55.21;100043.28;694471;28;22405;-55
2021/04/06 00:47:44;;;;;;;2.95;1.30;;;;;;;2.36;55.28;100034.88;685795;28;157748;-54
2021/04/06 00:48:10;;;;;;;1.80;1.30;;;;;;;2.33;55.70;100043.97;691789;28;22481;-54
2021/04/06 00:48:33;;;;;;;2.15;1.30;;;;;;;2.36;55.22;100034.88;686955;28;137942;-55
2021/04/06 00:48:56;;;;;;;2.00;1.35;;;;;;;2.36;55.07;100036.72;689903;28;70266;-53
2021/04/06 00:49:17;;;;;;;3.05;1.30;;;;;;;2.34;55.27;100042.19;689374;28;65648;-52
2021/04/06 00:49:41;;;;;;;2.75;1.42;;;;;;;2.33;55.39;100035.97;687307;28;23486;-57
2021/04/06 00:50:05;;;;;;;2.40;1.25;;;;;;;2.33;55.37;100040.47;680939;28;115281;-54
2021/04/06 00:50:31;;;;;;;3.33;1.27;;;;;;;2.32;55.36;100037.00;678988;29;92375;-56
2021/04/06 00:51:12;;;;;;;2.75;1.45;;;;;;;2.39;55.06;100045.25;674884;29;139003;-56
2021/04/06 00:51:38;;;;;;;3.22;1.50;;;;;;;2.40;55.07;100049.63;677698;28;137521;-52
2021/04/06 00:52:03;;;;;;;3.22;1.58;;;;;;;2.39;55.34;100045.25;681879;28;92278;-52
2021/04/06 00:52:25;;;;;;;1.42;1.23;;;;;;;2.38;55.58;100042.72;685254;28;101625;-54
2021/04/06 00:52:47;;;;;;;4.25;1.42;;;;;;;2.40;55.03;100033.63;688749;28;46344;-52
2021/04/06 00:53:09;;;;;;;1.67;1.48;;;;;;;2.39;55.27;100036.44;690539;28;42170;-56
2021/04/06 00:54:02;;;;;;;3.05;1.42;;;;;;;2.38;55.17;100048.88;692642;28;28127;-57
2021/04/06 00:54:25;;;;;;;1.60;1.50;;;;;;;2.35;55.33;100038.50;687807;28;130764;-53
2021/04/06 00:54:51;;;;;;;2.33;1.67;;;;;;;2.31;55.50;100040.63;690165;28;46542;-54
2021/04/06 00:55:15;;;;;;;1.42;1.30;;;;;;;2.28;55.68;100040.91;687722;28;133535;-53
2021/04/06 00:55:37;;;;;;;1.88;1.40;;;;;;;2.30;55.67;100046.97;688401;28;92042;-55
2021/04/06 00:56:12;;;;;;;3.33;1.60;;;;;;;2.30;55.89;100046.09;689135;28;68344;-54
2021/04/06 00:56:36;;;;;;;4.38;1.58;;;;;;;2.30;55.71;100044.28;686855;28;158568;-56
2021/04/06 00:56:58;;;;;;;1.70;1.20;;;;;;;2.29;55.89;100044.44;687997;28;69637;-52
2021/04/06 00:57:23;;;;;;;1.45;1.35;;;;;;;2.28;55.91;100046.25;688197;28;69510;-54
2021/04/06 00:57:44;;;;;;;2.30;1.58;;;;;;;2.30;55.78;100038.97;689524;28;92153;-53
2021/04/06 00:58:12;;;;;;;2.03;1.45;;;;;;;2.31;55.68;100039.78;692090;28;45186;-52
2021/04/06 00:58:34;;;;;;;4.50;1.40;;;;;;;2.31;55.53;100037.97;689015;28;161020;-52
2021/04/06 00:58:57;;;;;;;3.17;1.40;;;;;;;2.30;55.66;100033.63;692162;28;59440;-54
2021/04/06 00:59:21;;;;;;;3.50;1.63;;;;;;;2.27;55.91;100043.72;692659;28;46187;-49
2021/04/06 01:00:16;;;;;;;3.00;1.20;;;;;;;2.21;56.01;100041.59;691665;28;92511;-50
2021/04/06 01:00:39;;;;;;;2.85;1.50;;;;;;;2.19;56.19;100046.25;692495;28;62447;-55
2021/04/06 01:01:02;;;;;;;4.13;1.60;;;;;;;2.17;56.32;100041.88;693576;28;46397;-53
2021/04/06 01:01:30;;;;;;;2.50;1.45;;;;;;;2.20;56.19;100039.94;692526;28;69473;-52
2021/04/06 01:01:55;;;;;;;1.73;1.23;;;;;;;2.23;56.01;100047.66;690602;28;124238;-51
2021/04/06 01:02:18;;;;;;;1.45;1.35;;;;;;;2.29;55.77;100044.44;688464;28;138143;-54
2021/04/06 01:02:44;;;;;;;2.70;1.30;;;;;;;2.32;55.54;100041.47;693434;28;908;-49
2021/04/06 01:03:06;;;;;;;7.13;3.95;;;;;;;2.30;55.70;100044.28;689529;28;109424;-49
2021/04/06 01:03:28;;;;;;;16.15;8.55;;;;;;;2.27;55.87;100041.03;690845;28;67586;-51
2021/04/06 01:03:50;;;;;;;18.77;9.55;;;;;;;2.30;55.75;100044.28;691488;28;24845;-55
2021/04/06 01:04:13;;;;;;;3.95;2.65;;;;;;;2.29;55.69;100045.25;693023;28;26418;-56
2021/04/06 01:04:37;;;;;;;2.22;1.67;;;;;;;2.26;55.79;100050.03;692152;28;70358;-51
2021/04/06 01:05:03;;;;;;;4.68;1.60;;;;;;;2.27;55.66;100047.25;691357;28;93155;-50
2021/04/06 01:05:25;;;;;;;1.85;1.30;;;;;;;2.28;55.86;100048.91;690127;28;139142;-53
2021/04/06 01:06:05;;;;;;;1.58;1.10;;;;;;;2.30;55.61;100046.97;692570;28;44388;-51
2021/04/06 01:06:26;;;;;;;3.05;1.10;;;;;;;2.31;55.45;100050.44;690002;28;136279;-52
2021/04/06 01:07:01;;;;;;;2.50;1.23;;;;;;;2.31;55.72;100058.44;694093;28;22378;-52
2021/04/06 01:07:22;;;;;;;3.08;1.70;;;;;;;2.34;55.44;100037.69;690096;28;136680;-51
2021/04/06 01:07:43;;;;;;;2.05;1.40;;;;;;;2.32;55.66;100057.44;693058;28;19606;-50
2021/04/06 01:08:06;;;;;;;2.33;1.40;;;;;;;2.31;55.63;100051.28;693585;28;22560;-52
2021/04/06 01:08:29;;;;;;;2.72;1.23;;;;;;;2.35;55.51;100046.50;691488;28;67528;-54
2021/04/06 01:08:51;;;;;;;2.55;1.25;;;;;;;2.36;55.44;100050.88;692672;28;61642;-51
2021/04/06 01:09:12;;;;;;;1.52;1.20;;;;;;;2.33;55.83;100053.81;692985;28;45245;-53
2021/04/06 01:09:35;;;;;;;2.67;1.35;;;;;;;2.29;56.10;100055.94;693907;28;22408;-50
2021/04/06 01:09:57;;;;;;;1.48;1.30;;;;;;;2.27;56.17;100057.03;691960;28;51288;-53
2021/04/06 01:10:18;;;;;;;1.70;1.20;;;;;;;2.23;56.23;100060.97;692980;28;45409;-49
2021/04/06 01:10:39;;;;;;;2.03;1.42;;;;;;;2.19;56.53;100048.91;693827;28;24361;-52
2021/04/06 01:11:01;;;;;;;1.45;1.35;;;;;;;2.17;56.56;100059.69;693948;28;21528;-54
2021/04/06 01:11:22;;;;;;;1.30;1.20;;;;;;;2.16;56.59;100050.00;694581;28;11562;-51
2021/04/06 01:11:44;;;;;;;1.55;1.30;;;;;;;2.12;56.68;100049.47;692795;28;45410;-53
2021/04/06 01:12:06;;;;;;;3.47;1.38;;;;;;;2.10;56.73;100056.75;693313;28;37404;-53
2021/04/06 01:12:28;;;;;;;3.05;1.30;;;;;;;2.11;56.86;100061.09;693071;28;47441;-52
2021/04/06 01:12:50;;;;;;;2.75;1.48;;;;;;;2.13;56.59;100064.47;694017;28;21406;-53
2021/04/06 01:13:12;;;;;;;4.13;1.60;;;;;;;2.14;56.67;100062.66;694170;28;9581;-55
2021/04/06 01:13:34;;;;;;;2.83;1.30;;;;;;;2.13;56.63;100060.94;693613;28;33350;-50
2021/04/06 01:14:01;;;;;;;3.50;1.52;;;;;;;2.12;56.78;100056.63;693381;28;46470;-55
2021/04/06 01:14:22;;;;;;;3.78;1.60;;;;;;;2.11;56.66;100053.09;689772;28;138831;-53
2021/04/06 01:14:46;;;;;;;3.60;1.42;;;;;;;2.12;56.80;100054.78;694323;28;998;-53
2021/04/06 01:15:08;;;;;;;3.17;1.40;;;;;;;2.13;56.84;100059.16;691540;28;92978;-53
2021/04/06 01:15:33;;;;;;;4.43;1.35;;;;;;;2.13;56.38;100058.28;693372;28;46329;-56
2021/04/06 01:15:54;;;;;;;3.40;1.40;;;;;;;2.17;56.57;100054.38;690564;28;116070;-53
2021/04/06 01:16:16;;;;;;;3.20;1.38;;;;;;;2.17;56.59;100051.72;694715;28;11364;-54
2021/04/06 01:16:37;;;;;;;2.95;1.50;;;;;;;2.17;56.61;100051.72;692057;28;45414;-50
2021/04/06 01:16:59;;;;;;;1.65;1.30;;;;;;;2.14;56.71;100060.81;693547;28;23450;-50
2021/04/06 01:17:22;;;;;;;2.70;1.50;;;;;;;2.12;57.02;100054.78;693126;28;45365;-56
2021/04/06 01:17:44;;;;;;;2.60;1.35;;;;;;;2.15;56.93;100061.69;690679;28;91506;-51
2021/04/06 01:18:05;;;;;;;2.42;1.40;;;;;;;2.18;56.46;100058.72;692027;28;45621;-54
2021/04/06 01:18:26;;;;;;;2.13;1.40;;;;;;;2.21;56.39;100062.91;692717;28;23394;-52
2021/04/06 01:18:48;;;;;;;4.85;1.60;;;;;;;2.20;56.58;100069.25;693777;28;23416;-52
2021/04/06 01:19:10;;;;;;;3.08;1.40;;;;;;;2.20;56.40;100051.44;692668;28;69472;-54
2021/04/06 01:19:33;;;;;;;3.08;1.50;;;;;;;2.18;56.43;100058.72;694517;28;17514;-54
2021/04/06 01:19:55;;;;;;;1.95;1.23;;;;;;;2.14;56.71;100057.31;694117;28;14955;-50
2021/04/06 01:20:18;;;;;;;1.70;1.20;;;;;;;2.12;56.96;100062.78;694288;28;14434;-53
2021/04/06 01:20:40;;;;;;;1.50;1.40;;;;;;;2.10;56.79;100059.44;692422;28;69452;-52
2021/04/06 01:21:06;;;;;;;1.33;1.23;;;;;;;2.10;56.81;100064.75;691103;28;1106;-53
2021/04/06 01:21:27;;;;;;;2.63;1.30;;;;;;;2.11;56.88;100062.91;688176;28;113685;-55
2021/04/06 01:21:49;;;;;;;2.72;1.30;;;;;;;2.09;56.94;100049.75;691005;28;23526;-51
2021/04/06 01:22:11;;;;;;;3.30;1.30;;;;;;;2.08;56.90;100061.38;690659;28;45285;-51
2021/04/06 01:22:33;;;;;;;3.80;1.33;;;;;;;2.11;56.88;100057.59;691239;28;46347;-50
2021/04/06 01:22:57;;;;;;;1.55;1.15;;;;;;;2.11;56.63;100062.91;693335;28;44382;-50
2021/04/06 01:23:19;;;;;;;2.20;1.20;;;;;;;2.10;56.88;100062.09;691347;28;93341;-53
2021/04/06 01:23:41;;;;;;;1.30;1.20;;;;;;;2.10;56.97;100064.75;693434;28;45276;-54
2021/04/06 01:24:06;;;;;;;1.40;1.30;;;;;;;2.11;56.72;100057.59;692940;28;36190;-55
2021/04/06 01:24:28;;;;;;;2.20;1.58;;;;;;;2.09;56.93;100064.88;690114;28;137844;-52
2021/04/06 01:24:49;;;;;;;1.60;1.50;;;;;;;2.05;57.07;100064.31;693160;28;47503;-53
2021/04/06 01:25:16;;;;;;;2.05;1.35;;;;;;;2.03;57.35;100062.78;693867;28;21734;-55
2021/04/06 01:25:43;;;;;;;2.45;1.50;;;;;;;2.02;57.42;100066.41;689235;28;139027;-54
2021/04/06 01:26:09;;;;;;;2.80;1.35;;;;;;;2.00;57.63;100063.88;689634;28;136398;-55
2021/04/06 01:26:32;;;;;;;3.38;1.40;;;;;;;2.00;57.51;100063.88;690172;28;127660;-53
2021/04/06 01:26:53;;;;;;;2.20;1.33;;;;;;;1.97;57.77;100058.84;693099;28;43946;-55
2021/04/06 01:27:16;;;;;;;2.10;1.40;;;;;;;2.01;57.31;100062.06;693517;28;22482;-54
2021/04/06 01:27:37;;;;;;;2.78;1.38;;;;;;;1.98;57.47;100063.19;691406;28;63509;-55
2021/04/06 01:28:04;;;;;;;3.00;1.40;;;;;;;1.95;57.57;100064.31;694336;28;22385;-54
2021/04/06 01:28:27;;;;;;;2.00;1.40;;;;;;;1.94;57.80;100069.75;689021;28;161309;-52
2021/04/06 01:28:49;;;;;;;3.78;1.60;;;;;;;1.96;57.61;100073.16;691711;28;92314;-55
2021/04/06 01:29:10;;;;;;;2.58;1.40;;;;;;;2.02;57.17;100064.59;693565;28;22429;-55
2021/04/06 01:29:33;;;;;;;1.50;1.40;;;;;;;2.00;57.11;100061.22;693182;28;14921;-51
2021/04/06 01:29:56;;;;;;;2.03;1.40;;;;;;;1.97;57.27;100067.69;693598;28;22396;-51
2021/04/06 01:30:22;;;;;;;3.55;1.40;;;;;;;1.97;57.37;100062.38;692706;28;46255;-56
2021/04/06 01:30:45;;;;;;;2.70;1.33;;;;;;;1.93;57.44;100063.59;688280;28;160981;-58
2021/04/06 01:31:07;;;;;;;3.08;1.45;;;;;;;1.90;57.82;100071.88;691667;28;92311;-52
2021/04/06 01:31:28;;;;;;;2.95;1.40;;;;;;;1.92;57.82;100074.41;694117;28;24356;-56
2021/04/06 01:31:50;;;;;;;2.47;1.45;;;;;;;2.00;57.25;100066.56;692503;28;45367;-51
2021/04/06 01:32:12;;;;;;;3.83;1.88;;;;;;;2.02;57.22;100067.25;689011;28;974;-56
2021/04/06 01:32:33;;;;;;;2.60;1.55;;;;;;;1.98;57.66;100063.19;687072;28;44750;-55
2021/04/06 01:33:00;;;;;;;2.13;1.58;;;;;;;2.01;57.45;100078.91;688328;28;39230;-55
2021/04/06 01:33:23;;;;;;;2.40;1.33;;;;;;;1.98;57.48;100071.19;685463;28;70206;-52
2021/04/06 01:33:45;;;;;;;2.78;1.30;;;;;;;1.96;57.62;100066.00;688659;28;57074;-52
2021/04/06 01:34:06;;;;;;;1.75;1.30;;;;;;;1.94;57.86;100067.09;691499;28;45727;-55
2021/04/06 01:34:27;;;;;;;1.52;1.40;;;;;;;1.92;57.95;100069.06;693498;28;22413;-56
2021/04/06 01:34:49;;;;;;;2.20;1.50;;;;;;;1.91;58.10;100065.56;693901;28;22398;-52
2021/04/06 01:35:12;;;;;;;2.30;1.50;;;;;;;1.91;58.23;100073.56;694212;28;1579;-52
2021/04/06 01:35:33;;;;;;;1.88;1.40;;;;;;;1.91;58.17;100078.88;694117;28;1201;-55
2021/04/06 01:35:56;;;;;;;2.78;1.58;;;;;;;1.94;57.85;100075.94;694563;28;837;-53
2021/04/06 01:36:17;;;;;;;3.90;1.75;;;;;;;1.95;57.86;100076.78;693575;28;46395;-53
2021/04/06 01:36:38;;;;;;;1.98;1.63;;;;;;;1.92;58.19;100077.88;692423;28;44417;-52
2021/04/06 01:36:59;;;;;;;2.10;1.55;;;;;;;1.97;57.91;100075.69;693963;28;21520;-54
2021/04/06 01:37:23;;;;;;;3.53;1.58;;;;;;;2.03;57.33;100076.94;693960;28;15919;-52
2021/04/06 01:37:44;;;;;;;2.53;1.45;;;;;;;2.07;57.56;100082.81;690964;28;93339;-52
2021/04/06 01:38:05;;;;;;;4.20;1.70;;;;;;;2.14;56.97;100075.97;693877;28;23581;-52
2021/04/06 01:38:28;;;;;;;3.38;1.65;;;;;;;2.17;56.80;100083.69;693336;28;22397;-52
2021/04/06 01:38:49;;;;;;;3.80;1.67;;;;;;;2.17;56.68;100075.69;694618;28;69724;-52
2021/04/06 01:39:13;;;;;;;1.85;1.40;;;;;;;2.15;56.96;100075.00;693813;28;21534;-54
2021/04/06 01:39:34;;;;;;;1.92;1.40;;;;;;;2.12;57.15;100070.78;691114;28;91986;-51
2021/04/06 01:39:58;;;;;;;2.20;1.33;;;;;;;2.09;57.49;100080.88;693671;28;24000;-53
2021/04/06 01:40:19;;;;;;;3.13;1.38;;;;;;;2.12;56.95;100076.09;690886;28;81823;-51
2021/04/06 01:40:41;;;;;;;4.32;1.60;;;;;;;2.17;56.65;100071.19;694426;28;868;-53
2021/04/06 01:41:04;;;;;;;5.30;2.33;;;;;;;2.12;56.98;100075.28;694708;28;1291;-55
2021/04/06 01:41:25;;;;;;;10.77;5.97;;;;;;;2.09;57.19;100070.22;693679;28;40006;-50
2021/04/06 01:41:48;;;;;;;7.85;4.53;;;;;;;2.06;57.28;100074.00;693854;28;22438;-56
2021/04/06 01:42:09;;;;;;;4.63;2.85;;;;;;;2.04;57.45;100072.44;692339;28;69590;-53
2021/04/06 01:42:37;;;;;;;3.67;1.77;;;;;;;2.01;57.54;100076.22;693589;28;38167;-54
2021/04/06 01:43:00;;;;;;;2.03;1.60;;;;;;;2.01;57.50;100076.22;691030;28;115119;-53
2021/04/06 01:43:25;;;;;;;2.03;1.38;;;;;;;2.02;57.39;100082.41;692219;28;47270;-55
2021/04/06 01:43:49;;;;;;;3.30;1.60;;;;;;;2.01;57.43;100068.25;690566;28;114930;-53
2021/04/06 01:44:11;;;;;;;3.15;1.60;;;;;;;1.98;57.74;100071.19;693271;28;37780;-50
2021/04/06 01:44:35;;;;;;;1.88;1.63;;;;;;;1.98;57.72;100076.50;693843;28;15375;-57
2021/04/06 01:44:58;;;;;;;2.53;1.50;;;;;;;1.98;57.49;100071.19;690174;28;116210;-55
2021/04/06 01:45:21;;;;;;;1.83;1.40;;;;;;;1.99;57.57;100075.50;692530;28;68234;-53
2021/04/06 01:45:44;;;;;;;1.50;1.40;;;;;;;1.97;57.49;100065.03;694309;28;1364;-53
2021/04/06 01:46:14;;;;;;;1.70;1.40;;;;;;;1.94;57.80;100067.09;692975;28;46480;-53
2021/04/06 01:46:43;;;;;;;2.72;1.58;;;;;;;1.91;58.07;100070.91;692033;28;61284;-53
2021/04/06 01:47:05;;;;;;;1.90;1.25;;;;;;;1.90;57.94;100071.88;692102;28;67216;-53
2021/04/06 01:47:27;;;;;;;1.60;1.20;;;;;;;1.89;58.24;100066.69;693385;28;31190;-56
2021/04/06 01:47:49;;;;;;;3.25;1.50;;;;;;;1.89;58.25;100080.00;694280;28;4145;-50
2021/04/06 01:48:12;;;;;;;3.20;1.65;;;;;;;1.87;58.29;100080.13;694373;28;7942;-51
2021/04/06 01:48:33;;;;;;;3.10;1.70;;;;;;;1.87;58.21;100076.63;692653;28;46383;-61
2021/04/06 01:48:59;;;;;;;2.38;1.40;;;;;;;1.84;58.25;100066.25;693514;28;37515;-54
2021/04/06 01:49:20;;;;;;;1.95;1.27;;;;;;;1.82;58.34;100070.84;693232;28;47551;-50
2021/04/06 01:49:42;;;;;;;1.50;1.40;;;;;;;1.81;58.66;100070.03;692914;28;46289;-52
2021/04/06 01:50:05;;;;;;;2.72;1.33;;;;;;;1.80;58.56;100073.66;694035;28;14102;-56
2021/04/06 01:50:26;;;;;;;2.53;1.30;;;;;;;1.80;58.71;100077.19;690757;28;70229;-55
2021/04/06 01:50:48;;;;;;;1.58;1.40;;;;;;;1.80;58.68;100081.66;692006;28;23949;-55
2021/04/06 01:51:11;;;;;;;1.50;1.40;;;;;;;1.80;58.47;100077.19;690867;28;69524;-52
2021/04/06 01:51:33;;;;;;;1.70;1.50;;;;;;;1.82;58.29;100078.84;692782;28;1636;-52